sensor_id;sensor_type;location;lat;lon;timestamp;temperature;humidity
6429;DHT22;3247;48.946;10.220;2023-07-20T00:01:59;17.00;99.90
6429;DHT22;3247;48.946;10.220;2023-07-20T00:04:24;17.00;99.90
6429;DHT22;3247;48.946;10.220;2023-07-20T00:06:50;17.10;99.90
6429;DHT22;3247;48.946;10.220;2023-07-20T00:09:15;17.10;99.90
6429;DHT22;3247;48.946;10.220;2023-07-20T00:11:47;17.10;99.90
6429;DHT22;3247;48.946;10.220;2023-07-20T00:14:13;17.10;99.90
6429;DHT22;3247;48.946;10.220;2023-07-20T00:16:38;17.10;99.90
6429;DHT22;3247;48.946;10.220;2023-07-20T00:19:04;17.10;99.90
6429;DHT22;3247;48.946;10.220;2023-07-20T00:21:30;17.10;99.90
6429;DHT22;3247;48.946;10.220;2023-07-20T00:23:55;17.20;99.90
6429;DHT22;3247;48.946;10.220;2023-07-20T00:26:21;17.10;99.90
6429;DHT22;3247;48.946;10.220;2023-07-20T00:28:48;17.10;99.90
6429;DHT22;3247;48.946;10.220;2023-07-20T00:31:14;17.20;99.90
6429;DHT22;3247;48.946;10.220;2023-07-20T00:33:39;17.20;99.90
6429;DHT22;3247;48.946;10.220;2023-07-20T00:36:05;17.20;99.90
6429;DHT22;3247;48.946;10.220;2023-07-20T00:38:30;17.20;99.90
6429;DHT22;3247;48.946;10.220;2023-07-20T00:40:55;17.20;99.90
6429;DHT22;3247;48.946;10.220;2023-07-20T00:43:21;17.30;99.90
6429;DHT22;3247;48.946;10.220;2023-07-20T00:45:46;17.30;99.90
6429;DHT22;3247;48.946;10.220;2023-07-20T00:48:12;17.30;99.90
6429;DHT22;3247;48.946;10.220;2023-07-20T00:50:37;17.30;99.90
6429;DHT22;3247;48.946;10.220;2023-07-20T00:53:04;17.30;99.90
6429;DHT22;3247;48.946;10.220;2023-07-20T00:55:30;17.30;99.90
6429;DHT22;3247;48.946;10.220;2023-07-20T00:57:56;17.30;99.90
6429;DHT22;3247;48.946;10.220;2023-07-20T01:00:22;17.30;99.90
6429;DHT22;3247;48.946;10.220;2023-07-20T01:02:47;17.30;99.90
6429;DHT22;3247;48.946;10.220;2023-07-20T01:05:13;17.30;99.90
6429;DHT22;3247;48.946;10.220;2023-07-20T01:07:46;17.30;99.90
6429;DHT22;3247;48.946;10.220;2023-07-20T01:10:20;17.40;99.90
6429;DHT22;3247;48.946;10.220;2023-07-20T01:12:47;17.30;99.90
6429;DHT22;3247;48.946;10.220;2023-07-20T01:15:13;17.30;99.90
6429;DHT22;3247;48.946;10.220;2023-07-20T01:17:38;17.60;99.90
6429;DHT22;3247;48.946;10.220;2023-07-20T01:20:05;17.20;99.90
6429;DHT22;3247;48.946;10.220;2023-07-20T01:27:59;17.20;99.90
6429;DHT22;3247;48.946;10.220;2023-07-20T01:32:54;17.20;99.90
6429;DHT22;3247;48.946;10.220;2023-07-20T01:35:20;17.10;99.90
6429;DHT22;3247;48.946;10.220;2023-07-20T01:37:48;17.10;99.90
6429;DHT22;3247;48.946;10.220;2023-07-20T01:40:14;17.00;99.90
6429;DHT22;3247;48.946;10.220;2023-07-20T01:42:44;16.90;99.90
6429;DHT22;3247;48.946;10.220;2023-07-20T01:45:11;16.90;99.90
6429;DHT22;3247;48.946;10.220;2023-07-20T01:47:36;16.80;99.90
6429;DHT22;3247;48.946;10.220;2023-07-20T01:50:02;16.80;99.90
6429;DHT22;3247;48.946;10.220;2023-07-20T01:52:27;16.70;99.90
6429;DHT22;3247;48.946;10.220;2023-07-20T01:54:53;16.60;99.90
6429;DHT22;3247;48.946;10.220;2023-07-20T01:57:19;16.60;99.90
6429;DHT22;3247;48.946;10.220;2023-07-20T01:59:44;16.60;99.90
6429;DHT22;3247;48.946;10.220;2023-07-20T02:02:09;16.50;99.90
6429;DHT22;3247;48.946;10.220;2023-07-20T02:04:35;16.40;99.90
6429;DHT22;3247;48.946;10.220;2023-07-20T02:07:01;16.40;99.90
6429;DHT22;3247;48.946;10.220;2023-07-20T02:09:26;16.40;99.90
6429;DHT22;3247;48.946;10.220;2023-07-20T02:11:52;16.30;99.90
6429;DHT22;3247;48.946;10.220;2023-07-20T02:14:17;16.30;99.90
6429;DHT22;3247;48.946;10.220;2023-07-20T02:16:43;16.30;99.90
6429;DHT22;3247;48.946;10.220;2023-07-20T02:19:08;16.20;99.90
6429;DHT22;3247;48.946;10.220;2023-07-20T02:21:33;16.20;99.90
6429;DHT22;3247;48.946;10.220;2023-07-20T02:23:59;16.20;99.90
6429;DHT22;3247;48.946;10.220;2023-07-20T02:26:25;16.10;99.90
6429;DHT22;3247;48.946;10.220;2023-07-20T02:28:50;16.10;99.90
6429;DHT22;3247;48.946;10.220;2023-07-20T02:31:16;16.10;99.90
6429;DHT22;3247;48.946;10.220;2023-07-20T02:33:41;16.10;99.90
6429;DHT22;3247;48.946;10.220;2023-07-20T02:36:10;16.00;99.90
6429;DHT22;3247;48.946;10.220;2023-07-20T02:38:35;16.00;99.90
6429;DHT22;3247;48.946;10.220;2023-07-20T02:41:00;16.00;99.90
6429;DHT22;3247;48.946;10.220;2023-07-20T02:43:26;15.90;99.90
6429;DHT22;3247;48.946;10.220;2023-07-20T02:45:52;15.90;99.90
6429;DHT22;3247;48.946;10.220;2023-07-20T02:48:18;15.90;99.90
6429;DHT22;3247;48.946;10.220;2023-07-20T02:50:44;16.00;99.90
6429;DHT22;3247;48.946;10.220;2023-07-20T02:53:09;15.90;99.90
6429;DHT22;3247;48.946;10.220;2023-07-20T02:55:35;15.90;99.90
6429;DHT22;3247;48.946;10.220;2023-07-20T02:58:00;15.90;99.90
6429;DHT22;3247;48.946;10.220;2023-07-20T03:00:25;16.00;99.90
6429;DHT22;3247;48.946;10.220;2023-07-20T03:02:51;15.90;99.90
6429;DHT22;3247;48.946;10.220;2023-07-20T03:05:21;15.90;99.90
6429;DHT22;3247;48.946;10.220;2023-07-20T03:07:49;15.90;99.90
6429;DHT22;3247;48.946;10.220;2023-07-20T03:10:15;15.90;99.90
6429;DHT22;3247;48.946;10.220;2023-07-20T03:12:40;15.80;99.90
6429;DHT22;3247;48.946;10.220;2023-07-20T03:15:06;15.80;99.90
6429;DHT22;3247;48.946;10.220;2023-07-20T03:17:32;15.80;99.90
6429;DHT22;3247;48.946;10.220;2023-07-20T03:19:57;15.80;99.90
6429;DHT22;3247;48.946;10.220;2023-07-20T03:22:24;15.80;99.90
6429;DHT22;3247;48.946;10.220;2023-07-20T03:24:50;15.80;99.90
6429;DHT22;3247;48.946;10.220;2023-07-20T03:27:16;15.70;99.90
6429;DHT22;3247;48.946;10.220;2023-07-20T03:29:41;15.80;99.90
6429;DHT22;3247;48.946;10.220;2023-07-20T03:32:07;15.80;99.90
6429;DHT22;3247;48.946;10.220;2023-07-20T03:34:33;15.70;99.90
6429;DHT22;3247;48.946;10.220;2023-07-20T03:36:58;15.70;99.90
6429;DHT22;3247;48.946;10.220;2023-07-20T03:39:24;15.60;99.90
6429;DHT22;3247;48.946;10.220;2023-07-20T03:41:50;15.60;99.90
6429;DHT22;3247;48.946;10.220;2023-07-20T03:44:15;15.50;99.90
6429;DHT22;3247;48.946;10.220;2023-07-20T03:46:40;15.50;99.90
6429;DHT22;3247;48.946;10.220;2023-07-20T03:49:06;15.50;99.90
6429;DHT22;3247;48.946;10.220;2023-07-20T03:51:32;15.40;99.90
6429;DHT22;3247;48.946;10.220;2023-07-20T03:53:57;15.40;99.90
6429;DHT22;3247;48.946;10.220;2023-07-20T03:56:23;15.40;99.90
6429;DHT22;3247;48.946;10.220;2023-07-20T03:58:49;15.30;99.90
6429;DHT22;3247;48.946;10.220;2023-07-20T04:01:15;15.30;99.90
6429;DHT22;3247;48.946;10.220;2023-07-20T04:03:42;15.30;99.90
6429;DHT22;3247;48.946;10.220;2023-07-20T04:06:08;15.20;99.90
6429;DHT22;3247;48.946;10.220;2023-07-20T04:08:34;15.30;99.90
6429;DHT22;3247;48.946;10.220;2023-07-20T04:11:01;15.30;99.90
6429;DHT22;3247;48.946;10.220;2023-07-20T04:13:26;15.30;99.90
6429;DHT22;3247;48.946;10.220;2023-07-20T04:15:52;15.40;99.90
6429;DHT22;3247;48.946;10.220;2023-07-20T04:18:17;15.40;99.90
6429;DHT22;3247;48.946;10.220;2023-07-20T04:20:43;15.50;99.90
6429;DHT22;3247;48.946;10.220;2023-07-20T04:23:08;15.90;99.90
6429;DHT22;3247;48.946;10.220;2023-07-20T04:25:33;16.50;99.90
6429;DHT22;3247;48.946;10.220;2023-07-20T04:28:04;17.20;99.90
6429;DHT22;3247;48.946;10.220;2023-07-20T04:30:30;17.80;99.90
6429;DHT22;3247;48.946;10.220;2023-07-20T04:32:55;18.40;99.90
6429;DHT22;3247;48.946;10.220;2023-07-20T04:38:10;19.40;99.90
6429;DHT22;3247;48.946;10.220;2023-07-20T04:40:36;20.20;99.90
6429;DHT22;3247;48.946;10.220;2023-07-20T04:43:01;20.60;99.90
6429;DHT22;3247;48.946;10.220;2023-07-20T04:45:27;21.20;99.90
6429;DHT22;3247;48.946;10.220;2023-07-20T04:47:52;21.70;99.90
6429;DHT22;3247;48.946;10.220;2023-07-20T04:50:18;22.00;99.90
6429;DHT22;3247;48.946;10.220;2023-07-20T04:52:44;22.30;99.90
6429;DHT22;3247;48.946;10.220;2023-07-20T04:55:11;22.80;99.90
6429;DHT22;3247;48.946;10.220;2023-07-20T04:57:37;23.10;99.90
6429;DHT22;3247;48.946;10.220;2023-07-20T05:00:02;23.50;99.90
6429;DHT22;3247;48.946;10.220;2023-07-20T05:02:28;23.70;99.90
6429;DHT22;3247;48.946;10.220;2023-07-20T05:04:54;23.40;99.90
6429;DHT22;3247;48.946;10.220;2023-07-20T05:07:20;24.10;99.90
6429;DHT22;3247;48.946;10.220;2023-07-20T05:09:45;24.50;99.90
6429;DHT22;3247;48.946;10.220;2023-07-20T05:12:10;25.40;99.90
6429;DHT22;3247;48.946;10.220;2023-07-20T05:14:37;25.80;99.90
6429;DHT22;3247;48.946;10.220;2023-07-20T05:17:03;25.90;99.90
6429;DHT22;3247;48.946;10.220;2023-07-20T05:19:28;26.40;99.90
6429;DHT22;3247;48.946;10.220;2023-07-20T05:21:54;26.30;99.60
6429;DHT22;3247;48.946;10.220;2023-07-20T05:24:20;26.80;97.70
6429;DHT22;3247;48.946;10.220;2023-07-20T05:26:45;26.20;98.50
6429;DHT22;3247;48.946;10.220;2023-07-20T05:29:10;26.60;96.90
6429;DHT22;3247;48.946;10.220;2023-07-20T05:31:36;26.70;96.90
6429;DHT22;3247;48.946;10.220;2023-07-20T05:34:01;26.70;97.00
6429;DHT22;3247;48.946;10.220;2023-07-20T05:36:27;27.70;95.50
6429;DHT22;3247;48.946;10.220;2023-07-20T05:38:52;28.00;94.50
6429;DHT22;3247;48.946;10.220;2023-07-20T05:41:18;28.30;93.70
6429;DHT22;3247;48.946;10.220;2023-07-20T05:43:43;28.00;93.30
6429;DHT22;3247;48.946;10.220;2023-07-20T05:46:09;28.70;92.80
6429;DHT22;3247;48.946;10.220;2023-07-20T05:48:35;28.60;92.40
6429;DHT22;3247;48.946;10.220;2023-07-20T05:51:01;28.90;92.40
6429;DHT22;3247;48.946;10.220;2023-07-20T05:53:26;28.70;91.40
6429;DHT22;3247;48.946;10.220;2023-07-20T05:55:52;29.20;90.80
6429;DHT22;3247;48.946;10.220;2023-07-20T05:58:18;29.70;90.00
6429;DHT22;3247;48.946;10.220;2023-07-20T06:00:44;29.60;88.70
6429;DHT22;3247;48.946;10.220;2023-07-20T06:03:12;29.30;89.00
6429;DHT22;3247;48.946;10.220;2023-07-20T06:05:37;29.30;89.50
6429;DHT22;3247;48.946;10.220;2023-07-20T06:08:03;29.60;88.30
6429;DHT22;3247;48.946;10.220;2023-07-20T06:10:28;29.80;87.00
6429;DHT22;3247;48.946;10.220;2023-07-20T06:12:54;29.90;87.50
6429;DHT22;3247;48.946;10.220;2023-07-20T06:15:27;30.00;85.20
6429;DHT22;3247;48.946;10.220;2023-07-20T06:17:54;30.20;85.30
6429;DHT22;3247;48.946;10.220;2023-07-20T06:20:19;30.10;84.40
6429;DHT22;3247;48.946;10.220;2023-07-20T06:22:45;30.90;83.20
6429;DHT22;3247;48.946;10.220;2023-07-20T06:25:10;30.60;83.50
6429;DHT22;3247;48.946;10.220;2023-07-20T06:27:36;31.10;82.20
6429;DHT22;3247;48.946;10.220;2023-07-20T06:30:01;31.30;80.60
6429;DHT22;3247;48.946;10.220;2023-07-20T06:32:27;31.60;80.70
6429;DHT22;3247;48.946;10.220;2023-07-20T06:34:52;32.10;79.20
6429;DHT22;3247;48.946;10.220;2023-07-20T06:37:18;32.80;76.90
6429;DHT22;3247;48.946;10.220;2023-07-20T06:39:45;32.30;78.00
6429;DHT22;3247;48.946;10.220;2023-07-20T06:42:11;32.70;76.00
6429;DHT22;3247;48.946;10.220;2023-07-20T06:44:36;33.30;75.30
6429;DHT22;3247;48.946;10.220;2023-07-20T06:47:04;33.70;72.70
6429;DHT22;3247;48.946;10.220;2023-07-20T06:49:29;33.20;72.70
6429;DHT22;3247;48.946;10.220;2023-07-20T06:51:54;32.60;74.10
6429;DHT22;3247;48.946;10.220;2023-07-20T06:54:20;32.40;73.50
6429;DHT22;3247;48.946;10.220;2023-07-20T06:56:46;32.60;73.50
6429;DHT22;3247;48.946;10.220;2023-07-20T06:59:11;33.10;73.00
6429;DHT22;3247;48.946;10.220;2023-07-20T07:01:36;32.10;73.90
6429;DHT22;3247;48.946;10.220;2023-07-20T07:04:02;32.50;72.40
6429;DHT22;3247;48.946;10.220;2023-07-20T07:06:31;33.00;71.70
6429;DHT22;3247;48.946;10.220;2023-07-20T07:08:56;32.80;70.70
6429;DHT22;3247;48.946;10.220;2023-07-20T07:11:22;32.70;71.20
6429;DHT22;3247;48.946;10.220;2023-07-20T07:13:48;32.80;70.40
6429;DHT22;3247;48.946;10.220;2023-07-20T07:16:16;33.40;68.70
6429;DHT22;3247;48.946;10.220;2023-07-20T07:18:44;33.10;69.40
6429;DHT22;3247;48.946;10.220;2023-07-20T07:21:10;33.30;69.20
6429;DHT22;3247;48.946;10.220;2023-07-20T07:23:35;34.10;66.70
6429;DHT22;3247;48.946;10.220;2023-07-20T07:26:01;34.00;66.40
6429;DHT22;3247;48.946;10.220;2023-07-20T07:28:28;33.00;68.20
6429;DHT22;3247;48.946;10.220;2023-07-20T07:30:54;31.90;69.60
6429;DHT22;3247;48.946;10.220;2023-07-20T07:33:20;31.40;70.80
6429;DHT22;3247;48.946;10.220;2023-07-20T07:35:45;30.70;72.00
6429;DHT22;3247;48.946;10.220;2023-07-20T07:38:11;29.90;74.10
6429;DHT22;3247;48.946;10.220;2023-07-20T07:40:36;29.90;74.10
6429;DHT22;3247;48.946;10.220;2023-07-20T07:43:01;30.80;72.70
6429;DHT22;3247;48.946;10.220;2023-07-20T07:45:27;29.70;74.20
6429;DHT22;3247;48.946;10.220;2023-07-20T07:47:52;29.00;76.80
6429;DHT22;3247;48.946;10.220;2023-07-20T07:50:18;28.70;77.20
6429;DHT22;3247;48.946;10.220;2023-07-20T07:52:43;28.00;77.90
6429;DHT22;3247;48.946;10.220;2023-07-20T07:55:09;27.50;79.10
6429;DHT22;3247;48.946;10.220;2023-07-20T07:57:34;28.60;78.70
6429;DHT22;3247;48.946;10.220;2023-07-20T08:00:00;29.80;76.40
6429;DHT22;3247;48.946;10.220;2023-07-20T08:02:25;30.40;73.50
6429;DHT22;3247;48.946;10.220;2023-07-20T08:04:51;29.80;74.60
6429;DHT22;3247;48.946;10.220;2023-07-20T08:07:17;30.20;74.30
6429;DHT22;3247;48.946;10.220;2023-07-20T08:09:43;30.50;73.20
6429;DHT22;3247;48.946;10.220;2023-07-20T08:12:08;30.30;72.40
6429;DHT22;3247;48.946;10.220;2023-07-20T08:14:34;30.10;74.80
6429;DHT22;3247;48.946;10.220;2023-07-20T08:16:59;29.50;74.70
6429;DHT22;3247;48.946;10.220;2023-07-20T08:19:25;28.70;75.60
6429;DHT22;3247;48.946;10.220;2023-07-20T08:21:50;28.10;76.50
6429;DHT22;3247;48.946;10.220;2023-07-20T08:24:15;27.90;77.70
6429;DHT22;3247;48.946;10.220;2023-07-20T08:26:41;27.90;78.60
6429;DHT22;3247;48.946;10.220;2023-07-20T08:29:06;27.90;78.30
6429;DHT22;3247;48.946;10.220;2023-07-20T08:31:32;27.40;78.70
6429;DHT22;3247;48.946;10.220;2023-07-20T08:33:57;26.90;79.40
6429;DHT22;3247;48.946;10.220;2023-07-20T08:36:23;26.90;81.20
6429;DHT22;3247;48.946;10.220;2023-07-20T08:38:49;28.20;80.20
6429;DHT22;3247;48.946;10.220;2023-07-20T08:41:14;29.40;77.10
6429;DHT22;3247;48.946;10.220;2023-07-20T08:43:40;30.10;74.80
6429;DHT22;3247;48.946;10.220;2023-07-20T08:46:07;30.50;74.00
6429;DHT22;3247;48.946;10.220;2023-07-20T08:48:33;30.70;73.00
6429;DHT22;3247;48.946;10.220;2023-07-20T08:50:58;30.60;73.40
6429;DHT22;3247;48.946;10.220;2023-07-20T08:53:25;29.70;73.20
6429;DHT22;3247;48.946;10.220;2023-07-20T08:55:51;28.90;74.50
6429;DHT22;3247;48.946;10.220;2023-07-20T08:58:19;28.10;75.50
6429;DHT22;3247;48.946;10.220;2023-07-20T09:00:45;28.00;76.90
6429;DHT22;3247;48.946;10.220;2023-07-20T09:03:11;28.60;76.50
6429;DHT22;3247;48.946;10.220;2023-07-20T09:05:37;28.30;75.90
6429;DHT22;3247;48.946;10.220;2023-07-20T09:08:02;27.80;77.10
6429;DHT22;3247;48.946;10.220;2023-07-20T09:10:31;27.40;78.20
6429;DHT22;3247;48.946;10.220;2023-07-20T09:12:56;27.20;78.50
6429;DHT22;3247;48.946;10.220;2023-07-20T09:15:22;27.70;77.40
6429;DHT22;3247;48.946;10.220;2023-07-20T09:17:48;28.10;74.60
6429;DHT22;3247;48.946;10.220;2023-07-20T09:20:14;27.90;74.60
6429;DHT22;3247;48.946;10.220;2023-07-20T09:22:40;28.30;73.60
6429;DHT22;3247;48.946;10.220;2023-07-20T09:25:15;28.60;74.50
6429;DHT22;3247;48.946;10.220;2023-07-20T09:27:44;28.80;72.80
6429;DHT22;3247;48.946;10.220;2023-07-20T09:30:10;28.90;72.10
6429;DHT22;3247;48.946;10.220;2023-07-20T09:32:38;27.90;74.30
6429;DHT22;3247;48.946;10.220;2023-07-20T09:35:05;27.50;74.80
6429;DHT22;3247;48.946;10.220;2023-07-20T09:37:32;27.50;75.90
6429;DHT22;3247;48.946;10.220;2023-07-20T09:39:58;27.90;76.00
6429;DHT22;3247;48.946;10.220;2023-07-20T09:42:24;28.50;74.30
6429;DHT22;3247;48.946;10.220;2023-07-20T09:44:50;28.80;73.50
6429;DHT22;3247;48.946;10.220;2023-07-20T09:47:22;29.10;72.80
6429;DHT22;3247;48.946;10.220;2023-07-20T09:49:48;30.30;72.40
6429;DHT22;3247;48.946;10.220;2023-07-20T09:52:14;29.20;71.60
6429;DHT22;3247;48.946;10.220;2023-07-20T09:54:40;28.60;71.20
6429;DHT22;3247;48.946;10.220;2023-07-20T09:57:08;28.10;72.60
6429;DHT22;3247;48.946;10.220;2023-07-20T09:59:34;28.30;73.40
6429;DHT22;3247;48.946;10.220;2023-07-20T10:02:00;28.90;73.60
6429;DHT22;3247;48.946;10.220;2023-07-20T10:04:26;29.00;73.70
6429;DHT22;3247;48.946;10.220;2023-07-20T10:06:54;29.30;73.70
6429;DHT22;3247;48.946;10.220;2023-07-20T10:09:20;29.40;72.60
6429;DHT22;3247;48.946;10.220;2023-07-20T10:11:49;28.80;71.50
6429;DHT22;3247;48.946;10.220;2023-07-20T10:14:16;28.30;72.00
6429;DHT22;3247;48.946;10.220;2023-07-20T10:16:44;28.30;72.30
6429;DHT22;3247;48.946;10.220;2023-07-20T10:19:17;28.10;73.80
6429;DHT22;3247;48.946;10.220;2023-07-20T10:21:47;28.40;74.20
6429;DHT22;3247;48.946;10.220;2023-07-20T10:24:13;28.70;73.90
6429;DHT22;3247;48.946;10.220;2023-07-20T10:26:38;28.90;72.40
6429;DHT22;3247;48.946;10.220;2023-07-20T10:29:04;29.10;71.30
6429;DHT22;3247;48.946;10.220;2023-07-20T10:31:30;28.80;69.70
6429;DHT22;3247;48.946;10.220;2023-07-20T10:33:58;28.70;70.60
6429;DHT22;3247;48.946;10.220;2023-07-20T10:36:24;28.60;70.80
6429;DHT22;3247;48.946;10.220;2023-07-20T10:38:53;28.50;71.30
6429;DHT22;3247;48.946;10.220;2023-07-20T10:41:40;28.50;70.70
6429;DHT22;3247;48.946;10.220;2023-07-20T10:44:08;28.50;71.00
6429;DHT22;3247;48.946;10.220;2023-07-20T10:49:04;28.70;70.70
6429;DHT22;3247;48.946;10.220;2023-07-20T10:51:30;29.00;71.00
6429;DHT22;3247;48.946;10.220;2023-07-20T10:54:03;29.10;71.10
6429;DHT22;3247;48.946;10.220;2023-07-20T10:56:29;29.10;70.90
6429;DHT22;3247;48.946;10.220;2023-07-20T10:58:55;29.50;70.70
6429;DHT22;3247;48.946;10.220;2023-07-20T11:01:20;29.20;72.00
6429;DHT22;3247;48.946;10.220;2023-07-20T11:03:49;28.80;71.90
6429;DHT22;3247;48.946;10.220;2023-07-20T11:08:49;28.20;73.30
6429;DHT22;3247;48.946;10.220;2023-07-20T11:11:23;27.90;74.20
6429;DHT22;3247;48.946;10.220;2023-07-20T11:16:32;27.70;76.40
6429;DHT22;3247;48.946;10.220;2023-07-20T11:18:57;28.00;75.10
6429;DHT22;3247;48.946;10.220;2023-07-20T11:21:24;28.50;74.90
6429;DHT22;3247;48.946;10.220;2023-07-20T11:23:49;28.90;73.50
6429;DHT22;3247;48.946;10.220;2023-07-20T11:26:15;28.60;73.40
6429;DHT22;3247;48.946;10.220;2023-07-20T11:28:41;28.30;73.90
6429;DHT22;3247;48.946;10.220;2023-07-20T11:31:06;28.00;70.50
6429;DHT22;3247;48.946;10.220;2023-07-20T11:33:32;28.30;71.50
6429;DHT22;3247;48.946;10.220;2023-07-20T11:35:57;28.60;70.10
6429;DHT22;3247;48.946;10.220;2023-07-20T11:38:23;28.30;69.60
6429;DHT22;3247;48.946;10.220;2023-07-20T11:40:49;27.90;69.80
6429;DHT22;3247;48.946;10.220;2023-07-20T11:43:14;27.50;70.50
6429;DHT22;3247;48.946;10.220;2023-07-20T11:45:40;27.20;71.80
6429;DHT22;3247;48.946;10.220;2023-07-20T11:48:05;27.10;72.10
6429;DHT22;3247;48.946;10.220;2023-07-20T11:50:31;27.10;71.90
6429;DHT22;3247;48.946;10.220;2023-07-20T11:52:57;27.40;71.80
6429;DHT22;3247;48.946;10.220;2023-07-20T11:55:22;27.80;68.20
6429;DHT22;3247;48.946;10.220;2023-07-20T11:58:07;28.00;66.90
6429;DHT22;3247;48.946;10.220;2023-07-20T12:00:33;28.10;66.90
6429;DHT22;3247;48.946;10.220;2023-07-20T12:02:59;28.20;66.50
6429;DHT22;3247;48.946;10.220;2023-07-20T12:05:25;28.60;67.50
6429;DHT22;3247;48.946;10.220;2023-07-20T12:07:51;28.20;67.20
6429;DHT22;3247;48.946;10.220;2023-07-20T12:10:23;28.00;67.40
6429;DHT22;3247;48.946;10.220;2023-07-20T12:12:48;28.10;66.70
6429;DHT22;3247;48.946;10.220;2023-07-20T12:15:24;28.10;65.50
6429;DHT22;3247;48.946;10.220;2023-07-20T12:18:01;28.20;64.60
6429;DHT22;3247;48.946;10.220;2023-07-20T12:22:52;28.20;66.40
6429;DHT22;3247;48.946;10.220;2023-07-20T12:25:19;28.20;66.10
6429;DHT22;3247;48.946;10.220;2023-07-20T12:27:45;28.30;65.60
6429;DHT22;3247;48.946;10.220;2023-07-20T12:30:12;28.30;64.60
6429;DHT22;3247;48.946;10.220;2023-07-20T12:32:39;28.30;64.20
6429;DHT22;3247;48.946;10.220;2023-07-20T12:35:04;28.10;64.20
6429;DHT22;3247;48.946;10.220;2023-07-20T12:37:30;27.90;64.20
6429;DHT22;3247;48.946;10.220;2023-07-20T12:39:55;28.10;62.60
6429;DHT22;3247;48.946;10.220;2023-07-20T12:42:21;28.00;63.50
6429;DHT22;3247;48.946;10.220;2023-07-20T12:44:47;28.10;63.10
6429;DHT22;3247;48.946;10.220;2023-07-20T12:47:12;27.80;62.80
6429;DHT22;3247;48.946;10.220;2023-07-20T12:49:37;28.10;62.10
6429;DHT22;3247;48.946;10.220;2023-07-20T12:52:03;27.80;61.40
6429;DHT22;3247;48.946;10.220;2023-07-20T12:54:28;27.50;61.40
6429;DHT22;3247;48.946;10.220;2023-07-20T12:56:54;27.50;61.70
6429;DHT22;3247;48.946;10.220;2023-07-20T12:59:20;27.50;63.70
6429;DHT22;3247;48.946;10.220;2023-07-20T13:01:45;27.70;63.50
6429;DHT22;3247;48.946;10.220;2023-07-20T13:04:10;27.60;62.50
6429;DHT22;3247;48.946;10.220;2023-07-20T13:06:36;27.60;62.20
6429;DHT22;3247;48.946;10.220;2023-07-20T13:09:02;27.50;62.60
6429;DHT22;3247;48.946;10.220;2023-07-20T13:11:27;27.40;62.90
6429;DHT22;3247;48.946;10.220;2023-07-20T13:13:53;27.30;62.30
6429;DHT22;3247;48.946;10.220;2023-07-20T13:16:18;27.10;63.00
6429;DHT22;3247;48.946;10.220;2023-07-20T13:18:43;27.20;64.20
6429;DHT22;3247;48.946;10.220;2023-07-20T13:21:09;27.20;63.80
6429;DHT22;3247;48.946;10.220;2023-07-20T13:23:39;27.50;63.90
6429;DHT22;3247;48.946;10.220;2023-07-20T13:26:04;27.60;64.10
6429;DHT22;3247;48.946;10.220;2023-07-20T13:28:30;27.50;64.60
6429;DHT22;3247;48.946;10.220;2023-07-20T13:30:55;27.60;64.20
6429;DHT22;3247;48.946;10.220;2023-07-20T13:33:21;27.50;63.70
6429;DHT22;3247;48.946;10.220;2023-07-20T13:35:46;27.60;63.70
6429;DHT22;3247;48.946;10.220;2023-07-20T13:38:12;27.70;64.30
6429;DHT22;3247;48.946;10.220;2023-07-20T13:40:37;27.30;63.80
6429;DHT22;3247;48.946;10.220;2023-07-20T13:43:03;27.00;65.10
6429;DHT22;3247;48.946;10.220;2023-07-20T13:45:28;27.10;64.60
6429;DHT22;3247;48.946;10.220;2023-07-20T13:47:54;27.20;65.40
6429;DHT22;3247;48.946;10.220;2023-07-20T13:50:19;27.40;64.60
6429;DHT22;3247;48.946;10.220;2023-07-20T13:52:45;27.40;65.10
6429;DHT22;3247;48.946;10.220;2023-07-20T13:55:10;27.40;64.90
6429;DHT22;3247;48.946;10.220;2023-07-20T13:57:36;27.50;64.00
6429;DHT22;3247;48.946;10.220;2023-07-20T14:00:02;27.50;64.10
6429;DHT22;3247;48.946;10.220;2023-07-20T14:02:30;27.10;64.20
6429;DHT22;3247;48.946;10.220;2023-07-20T14:04:56;26.90;64.30
6429;DHT22;3247;48.946;10.220;2023-07-20T14:07:22;26.90;64.20
6429;DHT22;3247;48.946;10.220;2023-07-20T14:09:47;27.10;64.10
6429;DHT22;3247;48.946;10.220;2023-07-20T14:12:13;27.20;64.40
6429;DHT22;3247;48.946;10.220;2023-07-20T14:14:39;27.20;63.70
6429;DHT22;3247;48.946;10.220;2023-07-20T14:17:06;27.40;64.00
6429;DHT22;3247;48.946;10.220;2023-07-20T14:19:31;27.50;62.60
6429;DHT22;3247;48.946;10.220;2023-07-20T14:21:57;27.60;62.30
6429;DHT22;3247;48.946;10.220;2023-07-20T14:24:25;27.30;62.60
6429;DHT22;3247;48.946;10.220;2023-07-20T14:26:50;27.10;63.00
6429;DHT22;3247;48.946;10.220;2023-07-20T14:29:16;27.10;63.20
6429;DHT22;3247;48.946;10.220;2023-07-20T14:31:43;27.10;62.60
6429;DHT22;3247;48.946;10.220;2023-07-20T14:34:09;27.20;62.70
6429;DHT22;3247;48.946;10.220;2023-07-20T14:36:34;27.20;62.40
6429;DHT22;3247;48.946;10.220;2023-07-20T14:39:00;27.20;62.00
6429;DHT22;3247;48.946;10.220;2023-07-20T14:41:25;27.10;62.30
6429;DHT22;3247;48.946;10.220;2023-07-20T14:43:51;26.50;62.40
6429;DHT22;3247;48.946;10.220;2023-07-20T14:46:17;26.50;63.40
6429;DHT22;3247;48.946;10.220;2023-07-20T14:48:42;26.40;62.10
6429;DHT22;3247;48.946;10.220;2023-07-20T14:51:08;26.10;62.60
6429;DHT22;3247;48.946;10.220;2023-07-20T14:53:33;26.00;63.70
6429;DHT22;3247;48.946;10.220;2023-07-20T14:56:00;25.80;64.60
6429;DHT22;3247;48.946;10.220;2023-07-20T14:58:26;25.90;63.20
6429;DHT22;3247;48.946;10.220;2023-07-20T15:00:51;26.00;63.70
6429;DHT22;3247;48.946;10.220;2023-07-20T15:03:17;26.20;63.70
6429;DHT22;3247;48.946;10.220;2023-07-20T15:05:42;26.40;62.90
6429;DHT22;3247;48.946;10.220;2023-07-20T15:08:08;26.40;63.20
6429;DHT22;3247;48.946;10.220;2023-07-20T15:10:34;26.20;62.80
6429;DHT22;3247;48.946;10.220;2023-07-20T15:12:59;26.20;63.40
6429;DHT22;3247;48.946;10.220;2023-07-20T15:15:24;26.20;63.50
6429;DHT22;3247;48.946;10.220;2023-07-20T15:17:50;25.40;63.00
6429;DHT22;3247;48.946;10.220;2023-07-20T15:20:16;26.10;62.70
6429;DHT22;3247;48.946;10.220;2023-07-20T15:22:42;26.00;62.00
6429;DHT22;3247;48.946;10.220;2023-07-20T15:25:08;26.00;64.80
6429;DHT22;3247;48.946;10.220;2023-07-20T15:27:34;26.00;64.60
6429;DHT22;3247;48.946;10.220;2023-07-20T15:29:59;26.00;64.00
6429;DHT22;3247;48.946;10.220;2023-07-20T15:32:25;26.00;64.00
6429;DHT22;3247;48.946;10.220;2023-07-20T15:34:51;26.00;63.80
6429;DHT22;3247;48.946;10.220;2023-07-20T15:37:16;26.10;63.50
6429;DHT22;3247;48.946;10.220;2023-07-20T15:39:42;26.00;64.00
6429;DHT22;3247;48.946;10.220;2023-07-20T15:42:07;25.80;63.10
6429;DHT22;3247;48.946;10.220;2023-07-20T15:44:33;25.70;62.50
6429;DHT22;3247;48.946;10.220;2023-07-20T15:46:58;25.50;63.00
6429;DHT22;3247;48.946;10.220;2023-07-20T15:49:24;25.50;63.40
6429;DHT22;3247;48.946;10.220;2023-07-20T15:51:53;25.50;63.30
6429;DHT22;3247;48.946;10.220;2023-07-20T15:54:18;25.30;64.40
6429;DHT22;3247;48.946;10.220;2023-07-20T15:56:44;25.50;64.90
6429;DHT22;3247;48.946;10.220;2023-07-20T15:59:10;25.60;63.50